sensor_id;sensor_type;location;lat;lon;timestamp;P1;durP1;ratioP1;P2;durP2;ratioP2
13807;SDS011;40769;51.512;5.494;2022-12-18T00:01:56;33.83;;;20.97;;
13807;SDS011;40769;51.512;5.494;2022-12-18T00:04:23;31.43;;;21.23;;
13807;SDS011;40769;51.512;5.494;2022-12-18T00:06:50;29.10;;;20.80;;
13807;SDS011;40769;51.512;5.494;2022-12-18T00:09:16;32.17;;;20.33;;
13807;SDS011;40769;51.512;5.494;2022-12-18T00:11:42;28.67;;;20.13;;
13807;SDS011;40769;51.512;5.494;2022-12-18T00:14:09;32.27;;;20.60;;
13807;SDS011;40769;51.512;5.494;2022-12-18T00:16:36;30.50;;;19.70;;
13807;SDS011;40769;51.512;5.494;2022-12-18T00:19:03;30.07;;;19.37;;
13807;SDS011;40769;51.512;5.494;2022-12-18T00:21:29;31.67;;;20.83;;
13807;SDS011;40769;51.512;5.494;2022-12-18T00:23:57;29.50;;;19.70;;
13807;SDS011;40769;51.512;5.494;2022-12-18T00:26:25;25.03;;;17.13;;
13807;SDS011;40769;51.512;5.494;2022-12-18T00:28:52;24.13;;;15.73;;
13807;SDS011;40769;51.512;5.494;2022-12-18T00:31:19;20.23;;;13.80;;
13807;SDS011;40769;51.512;5.494;2022-12-18T00:33:47;18.33;;;12.63;;
13807;SDS011;40769;51.512;5.494;2022-12-18T00:36:14;102.57;;;25.40;;
13807;SDS011;40769;51.512;5.494;2022-12-18T00:38:42;28.33;;;16.63;;
13807;SDS011;40769;51.512;5.494;2022-12-18T00:41:08;31.20;;;20.70;;
13807;SDS011;40769;51.512;5.494;2022-12-18T00:43:35;32.20;;;20.50;;
13807;SDS011;40769;51.512;5.494;2022-12-18T00:46:02;29.67;;;19.77;;
13807;SDS011;40769;51.512;5.494;2022-12-18T00:48:27;27.43;;;19.53;;
13807;SDS011;40769;51.512;5.494;2022-12-18T00:50:53;29.80;;;19.00;;
13807;SDS011;40769;51.512;5.494;2022-12-18T00:53:19;25.70;;;17.93;;
13807;SDS011;40769;51.512;5.494;2022-12-18T00:55:45;28.47;;;17.77;;
13807;SDS011;40769;51.512;5.494;2022-12-18T00:58:11;28.37;;;17.37;;
13807;SDS011;40769;51.512;5.494;2022-12-18T01:00:38;25.17;;;17.60;;
13807;SDS011;40769;51.512;5.494;2022-12-18T01:03:04;29.47;;;19.00;;
13807;SDS011;40769;51.512;5.494;2022-12-18T01:05:30;26.83;;;17.67;;
13807;SDS011;40769;51.512;5.494;2022-12-18T01:07:56;27.20;;;17.50;;
13807;SDS011;40769;51.512;5.494;2022-12-18T01:10:21;20.73;;;15.03;;
13807;SDS011;40769;51.512;5.494;2022-12-18T01:12:48;24.60;;;15.20;;
13807;SDS011;40769;51.512;5.494;2022-12-18T01:15:14;17.87;;;12.67;;
13807;SDS011;40769;51.512;5.494;2022-12-18T01:17:40;17.07;;;12.03;;
13807;SDS011;40769;51.512;5.494;2022-12-18T01:20:06;25.83;;;17.50;;
13807;SDS011;40769;51.512;5.494;2022-12-18T01:22:33;29.93;;;19.83;;
13807;SDS011;40769;51.512;5.494;2022-12-18T01:24:59;37.40;;;20.60;;
13807;SDS011;40769;51.512;5.494;2022-12-18T01:27:25;32.17;;;21.33;;
13807;SDS011;40769;51.512;5.494;2022-12-18T01:29:50;26.30;;;19.50;;
13807;SDS011;40769;51.512;5.494;2022-12-18T01:32:16;28.00;;;19.63;;
13807;SDS011;40769;51.512;5.494;2022-12-18T01:34:42;27.60;;;19.97;;
13807;SDS011;40769;51.512;5.494;2022-12-18T01:37:08;27.83;;;19.77;;
13807;SDS011;40769;51.512;5.494;2022-12-18T01:39:33;27.83;;;19.27;;
13807;SDS011;40769;51.512;5.494;2022-12-18T01:42:00;26.77;;;18.57;;
13807;SDS011;40769;51.512;5.494;2022-12-18T01:50:16;27.40;;;19.17;;
13807;SDS011;40769;51.512;5.494;2022-12-18T01:52:52;25.00;;;17.13;;
13807;SDS011;40769;51.512;5.494;2022-12-18T01:55:31;23.77;;;16.43;;
13807;SDS011;40769;51.512;5.494;2022-12-18T01:58:02;18.60;;;12.80;;
13807;SDS011;40769;51.512;5.494;2022-12-18T02:00:28;16.77;;;12.27;;
13807;SDS011;40769;51.512;5.494;2022-12-18T02:02:54;26.23;;;18.20;;
13807;SDS011;40769;51.512;5.494;2022-12-18T02:05:24;28.87;;;18.87;;
13807;SDS011;40769;51.512;5.494;2022-12-18T02:08:26;26.97;;;19.03;;
13807;SDS011;40769;51.512;5.494;2022-12-18T02:11:02;28.37;;;19.60;;
13807;SDS011;40769;51.512;5.494;2022-12-18T02:13:48;28.33;;;18.97;;
13807;SDS011;40769;51.512;5.494;2022-12-18T02:18:43;28.73;;;19.17;;
13807;SDS011;40769;51.512;5.494;2022-12-18T02:26:55;24.40;;;17.07;;
13807;SDS011;40769;51.512;5.494;2022-12-18T02:29:29;22.13;;;16.20;;
13807;SDS011;40769;51.512;5.494;2022-12-18T02:32:01;22.17;;;15.40;;
13807;SDS011;40769;51.512;5.494;2022-12-18T02:34:31;23.87;;;16.90;;
13807;SDS011;40769;51.512;5.494;2022-12-18T02:37:02;26.63;;;17.70;;
13807;SDS011;40769;51.512;5.494;2022-12-18T02:39:32;17.57;;;13.10;;
13807;SDS011;40769;51.512;5.494;2022-12-18T02:42:00;15.97;;;11.70;;
13807;SDS011;40769;51.512;5.494;2022-12-18T02:44:33;21.53;;;15.70;;
13807;SDS011;40769;51.512;5.494;2022-12-18T02:47:00;24.40;;;17.30;;
13807;SDS011;40769;51.512;5.494;2022-12-18T02:49:48;26.43;;;18.07;;
13807;SDS011;40769;51.512;5.494;2022-12-18T02:52:24;25.00;;;18.47;;
13807;SDS011;40769;51.512;5.494;2022-12-18T02:58:17;24.47;;;16.63;;
13807;SDS011;40769;51.512;5.494;2022-12-18T03:00:51;24.77;;;17.70;;
13807;SDS011;40769;51.512;5.494;2022-12-18T03:03:26;23.70;;;17.00;;
13807;SDS011;40769;51.512;5.494;2022-12-18T03:06:10;24.13;;;16.60;;
13807;SDS011;40769;51.512;5.494;2022-12-18T03:08:43;23.60;;;16.27;;
13807;SDS011;40769;51.512;5.494;2022-12-18T03:11:12;23.40;;;15.73;;
13807;SDS011;40769;51.512;5.494;2022-12-18T03:16:10;23.73;;;16.73;;
13807;SDS011;40769;51.512;5.494;2022-12-18T03:18:49;21.13;;;15.10;;
13807;SDS011;40769;51.512;5.494;2022-12-18T03:21:20;16.83;;;12.50;;
13807;SDS011;40769;51.512;5.494;2022-12-18T03:23:50;13.17;;;10.07;;
13807;SDS011;40769;51.512;5.494;2022-12-18T03:26:18;40.97;;;16.07;;
13807;SDS011;40769;51.512;5.494;2022-12-18T03:28:48;20.57;;;14.50;;
13807;SDS011;40769;51.512;5.494;2022-12-18T03:31:21;21.83;;;15.40;;
13807;SDS011;40769;51.512;5.494;2022-12-18T03:36:22;22.63;;;15.70;;
13807;SDS011;40769;51.512;5.494;2022-12-18T03:38:48;20.47;;;14.97;;
13807;SDS011;40769;51.512;5.494;2022-12-18T03:44:14;17.53;;;12.90;;
13807;SDS011;40769;51.512;5.494;2022-12-18T03:55:02;16.20;;;12.13;;
13807;SDS011;40769;51.512;5.494;2022-12-18T03:57:30;18.20;;;13.10;;
13807;SDS011;40769;51.512;5.494;2022-12-18T03:59:58;17.27;;;12.87;;
13807;SDS011;40769;51.512;5.494;2022-12-18T04:02:28;18.40;;;12.77;;
13807;SDS011;40769;51.512;5.494;2022-12-18T04:04:56;17.60;;;12.73;;
13807;SDS011;40769;51.512;5.494;2022-12-18T04:07:25;13.37;;;9.80;;
13807;SDS011;40769;51.512;5.494;2022-12-18T04:09:52;11.40;;;7.97;;
13807;SDS011;40769;51.512;5.494;2022-12-18T04:12:21;12.40;;;8.47;;
13807;SDS011;40769;51.512;5.494;2022-12-18T04:14:48;18.47;;;13.07;;
13807;SDS011;40769;51.512;5.494;2022-12-18T04:17:14;20.83;;;13.93;;
13807;SDS011;40769;51.512;5.494;2022-12-18T04:19:39;19.47;;;14.07;;
13807;SDS011;40769;51.512;5.494;2022-12-18T04:22:05;18.50;;;14.10;;
13807;SDS011;40769;51.512;5.494;2022-12-18T04:24:31;18.90;;;13.23;;
13807;SDS011;40769;51.512;5.494;2022-12-18T04:26:56;17.73;;;13.23;;
13807;SDS011;40769;51.512;5.494;2022-12-18T04:29:22;17.20;;;12.83;;
13807;SDS011;40769;51.512;5.494;2022-12-18T04:31:47;17.27;;;12.83;;
13807;SDS011;40769;51.512;5.494;2022-12-18T04:34:13;16.47;;;11.93;;
13807;SDS011;40769;51.512;5.494;2022-12-18T04:36:39;18.10;;;12.03;;
13807;SDS011;40769;51.512;5.494;2022-12-18T04:39:04;16.67;;;11.27;;
13807;SDS011;40769;51.512;5.494;2022-12-18T04:41:30;15.80;;;11.33;;
13807;SDS011;40769;51.512;5.494;2022-12-18T04:43:55;16.10;;;12.27;;
13807;SDS011;40769;51.512;5.494;2022-12-18T04:46:21;17.87;;;12.60;;
13807;SDS011;40769;51.512;5.494;2022-12-18T04:48:47;11.87;;;9.20;;
13807;SDS011;40769;51.512;5.494;2022-12-18T04:51:12;12.90;;;9.73;;
13807;SDS011;40769;51.512;5.494;2022-12-18T04:53:38;11.73;;;8.30;;
13807;SDS011;40769;51.512;5.494;2022-12-18T04:56:05;49.93;;;13.43;;
13807;SDS011;40769;51.512;5.494;2022-12-18T04:58:31;17.27;;;11.93;;
13807;SDS011;40769;51.512;5.494;2022-12-18T05:00:57;17.30;;;12.07;;
13807;SDS011;40769;51.512;5.494;2022-12-18T05:03:23;14.33;;;11.73;;
13807;SDS011;40769;51.512;5.494;2022-12-18T05:05:49;16.53;;;12.03;;
13807;SDS011;40769;51.512;5.494;2022-12-18T05:08:16;16.43;;;12.43;;
13807;SDS011;40769;51.512;5.494;2022-12-18T05:10:41;16.00;;;11.80;;
13807;SDS011;40769;51.512;5.494;2022-12-18T05:13:07;16.53;;;12.03;;
13807;SDS011;40769;51.512;5.494;2022-12-18T05:15:33;14.53;;;10.93;;
13807;SDS011;40769;51.512;5.494;2022-12-18T05:17:59;16.27;;;11.47;;
13807;SDS011;40769;51.512;5.494;2022-12-18T05:20:26;15.33;;;10.47;;
13807;SDS011;40769;51.512;5.494;2022-12-18T05:22:52;14.13;;;10.47;;
13807;SDS011;40769;51.512;5.494;2022-12-18T05:25:18;13.93;;;10.60;;
13807;SDS011;40769;51.512;5.494;2022-12-18T05:27:44;14.27;;;10.87;;
13807;SDS011;40769;51.512;5.494;2022-12-18T05:30:11;12.87;;;10.07;;
13807;SDS011;40769;51.512;5.494;2022-12-18T05:32:37;13.80;;;10.30;;
13807;SDS011;40769;51.512;5.494;2022-12-18T05:35:04;15.23;;;11.30;;
13807;SDS011;40769;51.512;5.494;2022-12-18T05:37:31;10.57;;;8.20;;
13807;SDS011;40769;51.512;5.494;2022-12-18T05:39:56;9.97;;;7.43;;
13807;SDS011;40769;51.512;5.494;2022-12-18T05:42:22;11.10;;;8.67;;
13807;SDS011;40769;51.512;5.494;2022-12-18T05:44:48;14.53;;;11.40;;
13807;SDS011;40769;51.512;5.494;2022-12-18T05:47:13;15.13;;;11.37;;
13807;SDS011;40769;51.512;5.494;2022-12-18T05:49:39;15.57;;;11.57;;
13807;SDS011;40769;51.512;5.494;2022-12-18T05:52:04;15.30;;;10.57;;
13807;SDS011;40769;51.512;5.494;2022-12-18T05:54:30;15.00;;;10.80;;
13807;SDS011;40769;51.512;5.494;2022-12-18T05:56:56;13.43;;;11.00;;
13807;SDS011;40769;51.512;5.494;2022-12-18T05:59:23;13.17;;;10.23;;
13807;SDS011;40769;51.512;5.494;2022-12-18T06:01:49;14.37;;;10.30;;
13807;SDS011;40769;51.512;5.494;2022-12-18T06:04:14;13.97;;;10.50;;
13807;SDS011;40769;51.512;5.494;2022-12-18T06:06:40;13.37;;;10.50;;
13807;SDS011;40769;51.512;5.494;2022-12-18T06:09:05;14.07;;;10.13;;
13807;SDS011;40769;51.512;5.494;2022-12-18T06:11:33;15.00;;;10.20;;
13807;SDS011;40769;51.512;5.494;2022-12-18T06:14:00;15.17;;;11.00;;
13807;SDS011;40769;51.512;5.494;2022-12-18T06:16:27;12.70;;;9.90;;
13807;SDS011;40769;51.512;5.494;2022-12-18T06:18:53;15.57;;;10.93;;
13807;SDS011;40769;51.512;5.494;2022-12-18T06:21:22;11.67;;;8.37;;
13807;SDS011;40769;51.512;5.494;2022-12-18T06:23:47;9.20;;;7.03;;
13807;SDS011;40769;51.512;5.494;2022-12-18T06:26:13;9.50;;;7.37;;
13807;SDS011;40769;51.512;5.494;2022-12-18T06:28:39;14.10;;;9.97;;
13807;SDS011;40769;51.512;5.494;2022-12-18T06:31:05;13.83;;;11.00;;
13807;SDS011;40769;51.512;5.494;2022-12-18T06:33:32;14.20;;;11.73;;
13807;SDS011;40769;51.512;5.494;2022-12-18T06:35:59;14.30;;;10.90;;
13807;SDS011;40769;51.512;5.494;2022-12-18T06:38:37;14.60;;;10.80;;
13807;SDS011;40769;51.512;5.494;2022-12-18T06:41:08;14.37;;;11.03;;
13807;SDS011;40769;51.512;5.494;2022-12-18T06:43:35;14.43;;;10.43;;
13807;SDS011;40769;51.512;5.494;2022-12-18T06:46:01;12.33;;;9.83;;
13807;SDS011;40769;51.512;5.494;2022-12-18T06:48:28;13.10;;;10.70;;
13807;SDS011;40769;51.512;5.494;2022-12-18T06:50:54;13.70;;;10.43;;
13807;SDS011;40769;51.512;5.494;2022-12-18T06:53:20;13.80;;;10.87;;
13807;SDS011;40769;51.512;5.494;2022-12-18T06:55:45;16.13;;;11.60;;
13807;SDS011;40769;51.512;5.494;2022-12-18T06:58:11;14.07;;;10.57;;
13807;SDS011;40769;51.512;5.494;2022-12-18T07:00:36;14.17;;;10.33;;
13807;SDS011;40769;51.512;5.494;2022-12-18T07:03:02;15.77;;;11.63;;
13807;SDS011;40769;51.512;5.494;2022-12-18T07:05:28;12.57;;;9.80;;
13807;SDS011;40769;51.512;5.494;2022-12-18T07:07:54;11.27;;;8.57;;
13807;SDS011;40769;51.512;5.494;2022-12-18T07:10:19;9.60;;;8.00;;
13807;SDS011;40769;51.512;5.494;2022-12-18T07:12:45;12.03;;;8.97;;
13807;SDS011;40769;51.512;5.494;2022-12-18T07:15:10;14.83;;;11.03;;
13807;SDS011;40769;51.512;5.494;2022-12-18T07:17:36;15.53;;;11.73;;
13807;SDS011;40769;51.512;5.494;2022-12-18T07:20:02;15.93;;;12.10;;
13807;SDS011;40769;51.512;5.494;2022-12-18T07:22:28;16.87;;;12.10;;
13807;SDS011;40769;51.512;5.494;2022-12-18T07:24:54;15.40;;;11.80;;
13807;SDS011;40769;51.512;5.494;2022-12-18T07:27:20;15.77;;;11.60;;
13807;SDS011;40769;51.512;5.494;2022-12-18T07:29:46;16.17;;;12.17;;
13807;SDS011;40769;51.512;5.494;2022-12-18T07:32:12;15.67;;;12.03;;
13807;SDS011;40769;51.512;5.494;2022-12-18T07:34:38;14.53;;;11.00;;
13807;SDS011;40769;51.512;5.494;2022-12-18T07:37:03;13.30;;;10.57;;
13807;SDS011;40769;51.512;5.494;2022-12-18T07:39:29;16.63;;;12.10;;
13807;SDS011;40769;51.512;5.494;2022-12-18T07:41:55;15.77;;;10.47;;
13807;SDS011;40769;51.512;5.494;2022-12-18T07:44:39;17.03;;;11.27;;
13807;SDS011;40769;51.512;5.494;2022-12-18T07:47:05;14.37;;;10.00;;
13807;SDS011;40769;51.512;5.494;2022-12-18T07:49:30;12.10;;;10.30;;
13807;SDS011;40769;51.512;5.494;2022-12-18T07:51:58;11.80;;;8.93;;
13807;SDS011;40769;51.512;5.494;2022-12-18T07:54:24;11.73;;;9.17;;
13807;SDS011;40769;51.512;5.494;2022-12-18T07:56:50;12.07;;;9.60;;
13807;SDS011;40769;51.512;5.494;2022-12-18T07:59:17;15.47;;;12.03;;
13807;SDS011;40769;51.512;5.494;2022-12-18T08:01:43;17.20;;;13.13;;
13807;SDS011;40769;51.512;5.494;2022-12-18T08:04:09;15.53;;;11.80;;
13807;SDS011;40769;51.512;5.494;2022-12-18T08:06:34;15.77;;;12.77;;
13807;SDS011;40769;51.512;5.494;2022-12-18T08:09:00;17.53;;;13.47;;
13807;SDS011;40769;51.512;5.494;2022-12-18T08:11:26;17.70;;;13.47;;
13807;SDS011;40769;51.512;5.494;2022-12-18T08:13:54;16.00;;;12.60;;
13807;SDS011;40769;51.512;5.494;2022-12-18T08:16:20;17.60;;;13.27;;
13807;SDS011;40769;51.512;5.494;2022-12-18T08:18:47;17.37;;;12.63;;
13807;SDS011;40769;51.512;5.494;2022-12-18T08:21:14;17.30;;;12.33;;
13807;SDS011;40769;51.512;5.494;2022-12-18T08:23:43;15.23;;;12.47;;
13807;SDS011;40769;51.512;5.494;2022-12-18T08:26:13;17.33;;;13.60;;
13807;SDS011;40769;51.512;5.494;2022-12-18T08:28:39;15.17;;;12.30;;
13807;SDS011;40769;51.512;5.494;2022-12-18T08:31:05;15.13;;;11.60;;
13807;SDS011;40769;51.512;5.494;2022-12-18T08:33:31;15.83;;;12.57;;
13807;SDS011;40769;51.512;5.494;2022-12-18T08:36:00;16.27;;;12.33;;
13807;SDS011;40769;51.512;5.494;2022-12-18T08:38:27;12.30;;;9.87;;
13807;SDS011;40769;51.512;5.494;2022-12-18T08:40:59;197.97;;;34.90;;
13807;SDS011;40769;51.512;5.494;2022-12-18T08:43:25;13.97;;;11.37;;
13807;SDS011;40769;51.512;5.494;2022-12-18T08:46:10;15.53;;;12.13;;
13807;SDS011;40769;51.512;5.494;2022-12-18T08:48:36;16.30;;;13.10;;
13807;SDS011;40769;51.512;5.494;2022-12-18T08:51:01;14.57;;;12.57;;
13807;SDS011;40769;51.512;5.494;2022-12-18T08:53:27;16.93;;;13.37;;
13807;SDS011;40769;51.512;5.494;2022-12-18T08:55:53;15.27;;;11.87;;
13807;SDS011;40769;51.512;5.494;2022-12-18T08:58:19;16.17;;;13.30;;
13807;SDS011;40769;51.512;5.494;2022-12-18T09:00:44;14.93;;;12.67;;
13807;SDS011;40769;51.512;5.494;2022-12-18T09:03:14;15.87;;;12.37;;
13807;SDS011;40769;51.512;5.494;2022-12-18T09:05:41;15.30;;;11.93;;
13807;SDS011;40769;51.512;5.494;2022-12-18T09:08:07;15.90;;;12.53;;
13807;SDS011;40769;51.512;5.494;2022-12-18T09:10:32;15.13;;;12.80;;
13807;SDS011;40769;51.512;5.494;2022-12-18T09:12:58;18.60;;;13.57;;
13807;SDS011;40769;51.512;5.494;2022-12-18T09:15:24;18.33;;;13.63;;
13807;SDS011;40769;51.512;5.494;2022-12-18T09:17:49;17.97;;;12.80;;
13807;SDS011;40769;51.512;5.494;2022-12-18T09:20:15;14.37;;;11.27;;
13807;SDS011;40769;51.512;5.494;2022-12-18T09:22:41;13.30;;;10.73;;
13807;SDS011;40769;51.512;5.494;2022-12-18T09:25:07;10.93;;;8.87;;
13807;SDS011;40769;51.512;5.494;2022-12-18T09:27:33;10.67;;;8.90;;
13807;SDS011;40769;51.512;5.494;2022-12-18T09:29:59;13.93;;;11.00;;
13807;SDS011;40769;51.512;5.494;2022-12-18T09:32:25;15.80;;;12.50;;
13807;SDS011;40769;51.512;5.494;2022-12-18T09:34:51;15.77;;;13.27;;
13807;SDS011;40769;51.512;5.494;2022-12-18T09:37:16;15.40;;;12.70;;
13807;SDS011;40769;51.512;5.494;2022-12-18T09:39:42;14.73;;;12.23;;
13807;SDS011;40769;51.512;5.494;2022-12-18T09:42:09;14.83;;;11.93;;
13807;SDS011;40769;51.512;5.494;2022-12-18T09:44:52;15.73;;;12.43;;
13807;SDS011;40769;51.512;5.494;2022-12-18T09:49:58;16.40;;;12.80;;
13807;SDS011;40769;51.512;5.494;2022-12-18T09:52:27;15.50;;;12.47;;
13807;SDS011;40769;51.512;5.494;2022-12-18T09:55:03;14.13;;;11.70;;
13807;SDS011;40769;51.512;5.494;2022-12-18T09:57:33;16.30;;;13.03;;
13807;SDS011;40769;51.512;5.494;2022-12-18T10:00:06;13.87;;;11.93;;
13807;SDS011;40769;51.512;5.494;2022-12-18T10:02:45;12.30;;;10.20;;
13807;SDS011;40769;51.512;5.494;2022-12-18T10:05:12;11.73;;;10.33;;
13807;SDS011;40769;51.512;5.494;2022-12-18T10:08:16;14.70;;;11.20;;
13807;SDS011;40769;51.512;5.494;2022-12-18T10:13:42;12.80;;;10.73;;
13807;SDS011;40769;51.512;5.494;2022-12-18T10:27:24;13.77;;;12.30;;
13807;SDS011;40769;51.512;5.494;2022-12-18T10:29:51;14.70;;;12.90;;
13807;SDS011;40769;51.512;5.494;2022-12-18T10:32:21;14.07;;;12.43;;
13807;SDS011;40769;51.512;5.494;2022-12-18T10:34:50;15.33;;;12.53;;
13807;SDS011;40769;51.512;5.494;2022-12-18T10:37:18;13.60;;;12.00;;
13807;SDS011;40769;51.512;5.494;2022-12-18T10:39:46;14.70;;;12.50;;
13807;SDS011;40769;51.512;5.494;2022-12-18T10:42:41;13.97;;;12.47;;
13807;SDS011;40769;51.512;5.494;2022-12-18T10:45:13;16.20;;;14.10;;
13807;SDS011;40769;51.512;5.494;2022-12-18T10:47:41;13.93;;;12.43;;
13807;SDS011;40769;51.512;5.494;2022-12-18T10:50:33;14.87;;;13.00;;
13807;SDS011;40769;51.512;5.494;2022-12-18T10:52:59;14.93;;;12.70;;
13807;SDS011;40769;51.512;5.494;2022-12-18T10:55:31;12.43;;;10.67;;
13807;SDS011;40769;51.512;5.494;2022-12-18T10:58:19;10.50;;;9.37;;
13807;SDS011;40769;51.512;5.494;2022-12-18T11:00:53;11.43;;;10.23;;
13807;SDS011;40769;51.512;5.494;2022-12-18T11:03:30;12.50;;;10.67;;
13807;SDS011;40769;51.512;5.494;2022-12-18T11:06:03;13.57;;;12.07;;
13807;SDS011;40769;51.512;5.494;2022-12-18T11:08:30;14.43;;;12.93;;
13807;SDS011;40769;51.512;5.494;2022-12-18T11:10:56;12.60;;;10.73;;
13807;SDS011;40769;51.512;5.494;2022-12-18T11:13:22;13.50;;;12.10;;
13807;SDS011;40769;51.512;5.494;2022-12-18T11:15:50;15.27;;;13.23;;
13807;SDS011;40769;51.512;5.494;2022-12-18T11:18:21;13.93;;;12.53;;
13807;SDS011;40769;51.512;5.494;2022-12-18T11:21:04;15.23;;;13.33;;
13807;SDS011;40769;51.512;5.494;2022-12-18T11:23:33;15.67;;;13.30;;
13807;SDS011;40769;51.512;5.494;2022-12-18T11:26:01;13.97;;;12.50;;
13807;SDS011;40769;51.512;5.494;2022-12-18T11:28:41;13.10;;;11.53;;
13807;SDS011;40769;51.512;5.494;2022-12-18T11:31:10;12.90;;;11.50;;
13807;SDS011;40769;51.512;5.494;2022-12-18T11:36:34;14.80;;;12.97;;
13807;SDS011;40769;51.512;5.494;2022-12-18T11:39:16;14.93;;;12.03;;
13807;SDS011;40769;51.512;5.494;2022-12-18T11:41:52;12.70;;;11.40;;
13807;SDS011;40769;51.512;5.494;2022-12-18T11:50:41;13.53;;;12.07;;
13807;SDS011;40769;51.512;5.494;2022-12-18T11:53:02;12.57;;;11.17;;
13807;SDS011;40769;51.512;5.494;2022-12-18T12:00:41;14.30;;;12.23;;
13807;SDS011;40769;51.512;5.494;2022-12-18T12:11:26;14.17;;;12.67;;
13807;SDS011;40769;51.512;5.494;2022-12-18T12:30:21;10.40;;;9.40;;
13807;SDS011;40769;51.512;5.494;2022-12-18T12:35:51;15.43;;;13.13;;
13807;SDS011;40769;51.512;5.494;2022-12-18T12:38:37;10.50;;;9.40;;
13807;SDS011;40769;51.512;5.494;2022-12-18T12:41:09;16.43;;;13.30;;
13807;SDS011;40769;51.512;5.494;2022-12-18T12:43:57;16.03;;;13.80;;
13807;SDS011;40769;51.512;5.494;2022-12-18T12:46:26;17.70;;;15.43;;
13807;SDS011;40769;51.512;5.494;2022-12-18T12:48:59;18.87;;;15.87;;
13807;SDS011;40769;51.512;5.494;2022-12-18T12:51:31;18.63;;;14.70;;
13807;SDS011;40769;51.512;5.494;2022-12-18T12:53:59;15.97;;;13.67;;
13807;SDS011;40769;51.512;5.494;2022-12-18T12:56:32;15.87;;;13.57;;
13807;SDS011;40769;51.512;5.494;2022-12-18T13:01:50;14.80;;;13.30;;
13807;SDS011;40769;51.512;5.494;2022-12-18T13:04:31;15.57;;;13.80;;
13807;SDS011;40769;51.512;5.494;2022-12-18T13:07:32;14.57;;;12.80;;
13807;SDS011;40769;51.512;5.494;2022-12-18T13:12:54;13.20;;;11.80;;
13807;SDS011;40769;51.512;5.494;2022-12-18T13:18:25;14.20;;;12.47;;
13807;SDS011;40769;51.512;5.494;2022-12-18T13:25:53;14.53;;;13.03;;
13807;SDS011;40769;51.512;5.494;2022-12-18T13:31:09;12.67;;;11.37;;
13807;SDS011;40769;51.512;5.494;2022-12-18T13:33:42;14.50;;;12.90;;
13807;SDS011;40769;51.512;5.494;2022-12-18T13:36:13;13.33;;;11.53;;
13807;SDS011;40769;51.512;5.494;2022-12-18T13:39:09;12.10;;;10.33;;
13807;SDS011;40769;51.512;5.494;2022-12-18T13:41:35;10.17;;;8.90;;
13807;SDS011;40769;51.512;5.494;2022-12-18T13:44:19;14.00;;;11.83;;
13807;SDS011;40769;51.512;5.494;2022-12-18T13:46:48;12.83;;;11.50;;
13807;SDS011;40769;51.512;5.494;2022-12-18T13:52:16;14.00;;;11.50;;
13807;SDS011;40769;51.512;5.494;2022-12-18T13:54:55;15.27;;;13.67;;
13807;SDS011;40769;51.512;5.494;2022-12-18T13:59:57;13.90;;;12.33;;
13807;SDS011;40769;51.512;5.494;2022-12-18T14:02:37;15.17;;;13.63;;
13807;SDS011;40769;51.512;5.494;2022-12-18T14:05:03;18.47;;;13.00;;
13807;SDS011;40769;51.512;5.494;2022-12-18T14:07:29;15.87;;;13.23;;
13807;SDS011;40769;51.512;5.494;2022-12-18T14:09:57;15.27;;;13.00;;
13807;SDS011;40769;51.512;5.494;2022-12-18T14:12:32;14.83;;;13.00;;
13807;SDS011;40769;51.512;5.494;2022-12-18T14:15:27;12.50;;;11.13;;
13807;SDS011;40769;51.512;5.494;2022-12-18T14:18:23;13.10;;;11.67;;
13807;SDS011;40769;51.512;5.494;2022-12-18T14:20:50;14.10;;;12.60;;
13807;SDS011;40769;51.512;5.494;2022-12-18T14:23:37;15.93;;;13.23;;
13807;SDS011;40769;51.512;5.494;2022-12-18T14:28:57;10.60;;;9.50;;
13807;SDS011;40769;51.512;5.494;2022-12-18T14:31:26;14.37;;;12.63;;
13807;SDS011;40769;51.512;5.494;2022-12-18T14:33:54;15.17;;;13.23;;
13807;SDS011;40769;51.512;5.494;2022-12-18T14:36:24;15.07;;;13.53;;
13807;SDS011;40769;51.512;5.494;2022-12-18T14:38:55;14.40;;;12.90;;
13807;SDS011;40769;51.512;5.494;2022-12-18T14:41:22;14.40;;;12.90;;
13807;SDS011;40769;51.512;5.494;2022-12-18T14:43:50;14.67;;;13.00;;
13807;SDS011;40769;51.512;5.494;2022-12-18T14:48:57;15.03;;;13.43;;
13807;SDS011;40769;51.512;5.494;2022-12-18T14:51:25;15.17;;;13.60;;
13807;SDS011;40769;51.512;5.494;2022-12-18T14:53:53;15.33;;;13.57;;
13807;SDS011;40769;51.512;5.494;2022-12-18T14:56:28;15.77;;;13.60;;
13807;SDS011;40769;51.512;5.494;2022-12-18T14:59:03;15.10;;;12.43;;
13807;SDS011;40769;51.512;5.494;2022-12-18T15:01:37;14.47;;;12.50;;
13807;SDS011;40769;51.512;5.494;2022-12-18T15:07:38;15.03;;;13.43;;
13807;SDS011;40769;51.512;5.494;2022-12-18T15:10:02;14.77;;;13.17;;
13807;SDS011;40769;51.512;5.494;2022-12-18T15:12:47;16.40;;;14.23;;
13807;SDS011;40769;51.512;5.494;2022-12-18T15:23:14;14.00;;;12.43;;
13807;SDS011;40769;51.512;5.494;2022-12-18T15:31:32;14.73;;;12.47;;
13807;SDS011;40769;51.512;5.494;2022-12-18T15:36:33;16.33;;;13.97;;
13807;SDS011;40769;51.512;5.494;2022-12-18T15:39:01;13.40;;;11.87;;
13807;SDS011;40769;51.512;5.494;2022-12-18T15:41:30;12.70;;;11.37;;
13807;SDS011;40769;51.512;5.494;2022-12-18T15:43:58;13.00;;;11.70;;
13807;SDS011;40769;51.512;5.494;2022-12-18T15:46:24;14.43;;;12.77;;
13807;SDS011;40769;51.512;5.494;2022-12-18T15:48:52;15.03;;;13.33;;
13807;SDS011;40769;51.512;5.494;2022-12-18T15:53:47;15.97;;;14.17;;
13807;SDS011;40769;51.512;5.494;2022-12-18T15:56:14;17.00;;;14.20;;
13807;SDS011;40769;51.512;5.494;2022-12-18T15:58:59;14.73;;;13.13;;
13807;SDS011;40769;51.512;5.494;2022-12-18T16:01:32;16.40;;;13.67;;
13807;SDS011;40769;51.512;5.494;2022-12-18T16:03:57;15.30;;;13.57;;
13807;SDS011;40769;51.512;5.494;2022-12-18T16:06:26;16.60;;;13.97;;
13807;SDS011;40769;51.512;5.494;2022-12-18T16:08:58;16.60;;;13.33;;
13807;SDS011;40769;51.512;5.494;2022-12-18T16:11:25;15.13;;;12.77;;
13807;SDS011;40769;51.512;5.494;2022-12-18T16:16:47;16.80;;;12.90;;
13807;SDS011;40769;51.512;5.494;2022-12-18T16:19:15;13.83;;;12.30;;
13807;SDS011;40769;51.512;5.494;2022-12-18T16:21:41;14.60;;;13.10;;
13807;SDS011;40769;51.512;5.494;2022-12-18T16:24:14;15.53;;;13.77;;
13807;SDS011;40769;51.512;5.494;2022-12-18T16:26:41;15.20;;;12.50;;
13807;SDS011;40769;51.512;5.494;2022-12-18T16:29:08;14.50;;;12.90;;
13807;SDS011;40769;51.512;5.494;2022-12-18T16:31:34;13.13;;;11.73;;
13807;SDS011;40769;51.512;5.494;2022-12-18T16:34:13;14.47;;;12.43;;
13807;SDS011;40769;51.512;5.494;2022-12-18T16:36:51;14.27;;;12.47;;
13807;SDS011;40769;51.512;5.494;2022-12-18T16:39:18;13.73;;;12.40;;
13807;SDS011;40769;51.512;5.494;2022-12-18T16:41:44;15.97;;;13.57;;
13807;SDS011;40769;51.512;5.494;2022-12-18T16:44:10;14.43;;;12.93;;
13807;SDS011;40769;51.512;5.494;2022-12-18T16:46:39;15.13;;;12.73;;
13807;SDS011;40769;51.512;5.494;2022-12-18T16:49:08;12.50;;;11.07;;
13807;SDS011;40769;51.512;5.494;2022-12-18T16:51:35;14.60;;;12.93;;
13807;SDS011;40769;51.512;5.494;2022-12-18T16:54:01;13.27;;;11.87;;
13807;SDS011;40769;51.512;5.494;2022-12-18T16:56:26;13.80;;;12.33;;
13807;SDS011;40769;51.512;5.494;2022-12-18T17:01:18;15.27;;;13.00;;
13807;SDS011;40769;51.512;5.494;2022-12-18T17:03:50;14.13;;;12.63;;